createdAt,value
2023-01-06T00:01:18.815Z,97072.13
2023-01-06T00:03:51.460Z,97072.88
2023-01-06T00:06:19.712Z,97062.66
2023-01-06T00:08:46.811Z,97045.81
2023-01-06T00:11:15.142Z,97042.28
2023-01-06T00:13:42.545Z,97032.81
2023-01-06T00:16:16.709Z,97029.63
2023-01-06T00:18:43.951Z,97031.16
2023-01-06T00:21:12.590Z,97027.81
2023-01-06T00:23:40.371Z,97020.31
2023-01-06T00:26:09.507Z,97013.59
2023-01-06T00:28:36.729Z,97016.81
2023-01-06T00:31:13.372Z,97060.53
2023-01-06T00:33:41.181Z,97035.34
2023-01-06T00:36:10.005Z,97017.25
2023-01-06T00:38:40.928Z,96991.56
2023-01-06T00:41:29.699Z,96983.91
2023-01-06T00:43:58.166Z,96977.34
2023-01-06T00:46:29.650Z,97007.91
2023-01-06T00:49:06.658Z,96988.38
2023-01-06T00:51:37.024Z,96980.78
2023-01-06T00:54:06.052Z,96970.78
2023-01-06T00:56:36.748Z,96985.97
2023-01-06T00:59:04.116Z,96971.53
2023-01-06T01:01:31.283Z,96970.78
2023-01-06T01:03:58.467Z,96966.22
2023-01-06T01:06:25.687Z,96958.91
2023-01-06T01:08:58.011Z,96976.63
2023-01-06T01:11:44.342Z,96967.16
2023-01-06T01:14:12.561Z,96980.59
2023-01-06T01:16:40.205Z,96994.34
2023-01-06T01:19:07.537Z,96990.69
2023-01-06T01:21:34.954Z,96976.75
2023-01-06T01:24:02.087Z,96965.44
2023-01-06T01:26:29.156Z,96964.81
2023-01-06T01:28:56.960Z,96981.59
2023-01-06T01:31:24.189Z,96999.03
2023-01-06T01:33:51.279Z,96999.63
2023-01-06T01:36:19.551Z,97011.66
2023-01-06T01:38:46.645Z,97008.00
2023-01-06T01:41:16.666Z,97000.47
2023-01-06T01:43:52.253Z,97008.44
2023-01-06T01:46:31.545Z,96990.72
2023-01-06T01:49:07.255Z,97005.66
2023-01-06T01:51:41.219Z,97001.69
2023-01-06T01:54:15.989Z,97006.13
2023-01-06T01:56:47.777Z,97001.53
2023-01-06T01:59:18.911Z,97014.72
2023-01-06T02:01:47.469Z,97037.97
2023-01-06T02:04:16.405Z,97051.75
2023-01-06T02:06:46.398Z,97052.19
2023-01-06T02:09:26.517Z,97072.69
2023-01-06T02:11:54.622Z,97067.00
2023-01-06T02:14:27.921Z,97060.63
2023-01-06T02:17:14.576Z,97070.59
2023-01-06T02:20:03.364Z,97074.84
2023-01-06T02:22:52.441Z,97094.88
2023-01-06T02:25:46.272Z,97092.13
2023-01-06T02:28:47.069Z,97108.16
2023-01-06T02:31:47.811Z,97124.41
2023-01-06T02:34:33.784Z,97156.22
2023-01-06T02:37:00.900Z,97177.94
2023-01-06T02:39:53.127Z,97165.69
2023-01-06T02:42:42.205Z,97191.69
2023-01-06T02:45:21.704Z,97209.28
2023-01-06T02:47:55.811Z,97231.63
2023-01-06T02:50:34.958Z,97237.88
2023-01-06T02:53:16.333Z,97230.69
2023-01-06T02:55:49.790Z,97247.50
2023-01-06T02:58:27.211Z,97243.81
2023-01-06T03:01:07.644Z,97257.59
2023-01-06T03:03:38.390Z,97258.84
2023-01-06T03:06:13.931Z,97253.94
2023-01-06T03:08:43.049Z,97253.28
2023-01-06T03:11:10.365Z,97261.84
2023-01-06T03:13:56.337Z,97254.03
2023-01-06T03:16:23.888Z,97262.47
2023-01-06T03:18:52.913Z,97274.97
2023-01-06T03:21:25.728Z,97282.22
2023-01-06T03:23:53.305Z,97316.28
2023-01-06T03:26:20.538Z,97328.78
2023-01-06T03:28:47.602Z,97320.22
2023-01-06T03:31:31.169Z,97331.09
2023-01-06T03:34:20.268Z,97347.72
2023-01-06T03:37:25.019Z,97374.03
2023-01-06T03:40:12.080Z,97376.78
2023-01-06T03:43:18.857Z,97379.97
2023-01-06T03:45:52.889Z,97395.06
2023-01-06T03:48:26.937Z,97414.50
2023-01-06T03:51:14.229Z,97429.31
2023-01-06T03:53:42.542Z,97421.06
2023-01-06T03:56:17.982Z,97410.03
2023-01-06T03:58:49.024Z,97420.44
2023-01-06T04:01:17.483Z,97439.41
2023-01-06T04:03:47.117Z,97451.59
2023-01-06T04:06:14.735Z,97469.97
2023-01-06T04:08:43.196Z,97495.97
2023-01-06T04:11:31.264Z,97524.31
2023-01-06T04:13:58.385Z,97561.19
2023-01-06T04:16:25.878Z,97573.41
2023-01-06T04:18:53.105Z,97578.69
2023-01-06T04:21:20.384Z,97587.47
2023-01-06T04:23:48.082Z,97599.97
2023-01-06T04:26:15.771Z,97580.53
2023-01-06T04:28:49.606Z,97564.31
2023-01-06T04:31:16.975Z,97556.81
2023-01-06T04:33:45.532Z,97549.47
2023-01-06T04:36:13.064Z,97554.97
2023-01-06T04:38:43.517Z,97554.69
2023-01-06T04:41:10.534Z,97543.03
2023-01-06T04:43:37.801Z,97527.00
2023-01-06T04:46:05.266Z,97522.56
2023-01-06T04:48:32.385Z,97520.28
2023-01-06T04:51:06.118Z,97510.56
2023-01-06T04:53:35.294Z,97501.53
2023-01-06T04:56:04.571Z,97483.16
2023-01-06T04:58:31.893Z,97507.53
2023-01-06T05:01:03.712Z,97524.66
2023-01-06T05:03:30.475Z,97532.75
2023-01-06T05:06:01.492Z,97540.53
2023-01-06T05:08:28.325Z,97533.03
2023-01-06T05:11:08.992Z,97557.81
2023-01-06T05:13:36.515Z,97568.19
2023-01-06T05:16:08.200Z,97571.53
2023-01-06T05:18:35.201Z,97574.44
2023-01-06T05:21:02.216Z,97567.16
2023-01-06T05:23:28.881Z,97572.78
2023-01-06T05:25:55.630Z,97572.34
2023-01-06T05:28:22.581Z,97572.03
2023-01-06T05:30:49.492Z,97562.22
2023-01-06T05:33:16.241Z,97547.25
2023-01-06T05:35:42.980Z,97552.13
2023-01-06T05:38:09.612Z,97554.72
2023-01-06T05:40:36.484Z,97538.81
2023-01-06T05:43:03.240Z,97554.56
2023-01-06T05:45:30.018Z,97552.53
2023-01-06T05:47:58.100Z,97554.88
2023-01-06T05:50:24.999Z,97584.53
2023-01-06T05:52:51.846Z,97587.91
2023-01-06T05:55:18.848Z,97597.34
2023-01-06T05:57:47.960Z,97593.75
2023-01-06T06:00:15.389Z,97581.78
2023-01-06T06:02:42.021Z,97579.50
2023-01-06T06:05:08.920Z,97581.78
2023-01-06T06:07:37.408Z,97581.22
2023-01-06T06:10:05.453Z,97585.66
2023-01-06T06:12:32.087Z,97604.19
2023-01-06T06:14:58.841Z,97604.31
2023-01-06T06:17:25.524Z,97593.75
2023-01-06T06:19:52.324Z,97573.56
2023-01-06T06:22:19.025Z,97572.66
2023-01-06T06:24:45.788Z,97576.59
2023-01-06T06:27:12.474Z,97573.06
2023-01-06T06:29:39.159Z,97583.06
2023-01-06T06:32:05.840Z,97573.06
2023-01-06T06:34:32.567Z,97564.22
2023-01-06T06:36:59.172Z,97570.66
2023-01-06T06:39:25.919Z,97574.81
2023-01-06T06:41:52.873Z,97560.84
2023-01-06T06:44:19.497Z,97566.63
2023-01-06T06:46:46.244Z,97572.47
2023-01-06T06:49:12.909Z,97572.22
2023-01-06T06:51:39.614Z,97547.88
2023-01-06T06:54:06.330Z,97554.81
2023-01-06T06:56:33.249Z,97561.34
2023-01-06T06:58:59.987Z,97560.56
2023-01-06T07:01:28.026Z,97551.44
2023-01-06T07:03:54.789Z,97538.16
2023-01-06T07:06:24.098Z,97533.28
2023-01-06T07:08:51.457Z,97518.38
2023-01-06T07:11:18.695Z,97494.88
2023-01-06T07:13:45.512Z,97498.94
2023-01-06T07:16:12.347Z,97489.41
2023-01-06T07:18:39.590Z,97490.81
2023-01-06T07:21:06.896Z,97497.38
2023-01-06T07:23:33.924Z,97491.16
2023-01-06T07:26:02.283Z,97494.19
2023-01-06T07:28:30.665Z,97486.88
2023-01-06T07:30:57.644Z,97484.56
2023-01-06T07:33:24.556Z,97470.66
2023-01-06T07:35:55.757Z,97457.69
2023-01-06T07:38:23.065Z,97450.47
2023-01-06T07:40:50.332Z,97449.72
2023-01-06T07:43:19.855Z,97438.56
2023-01-06T07:45:48.231Z,97424.53
2023-01-06T07:48:15.278Z,97417.97
2023-01-06T07:50:42.047Z,97427.88
2023-01-06T07:53:09.840Z,97418.25
2023-01-06T07:55:36.609Z,97420.25
2023-01-06T07:58:07.603Z,97425.19
2023-01-06T08:00:35.096Z,97422.09
2023-01-06T08:03:07.129Z,97431.09
2023-01-06T08:05:41.549Z,97437.81
2023-01-06T08:08:09.464Z,97449.44
2023-01-06T08:10:39.968Z,97449.19
2023-01-06T08:13:06.990Z,97443.50
2023-01-06T08:15:34.029Z,97470.28
2023-01-06T08:18:00.728Z,97481.91
2023-01-06T08:20:27.497Z,97492.78
2023-01-06T08:22:54.211Z,97505.50
2023-01-06T08:25:20.939Z,97488.19
2023-01-06T08:27:47.753Z,97505.16
2023-01-06T08:30:14.583Z,97505.50
2023-01-06T08:32:41.215Z,97500.09
2023-01-06T08:35:08.145Z,97503.94
2023-01-06T08:37:36.189Z,97514.47
2023-01-06T08:40:02.914Z,97514.97
2023-01-06T08:42:29.620Z,97521.69
2023-01-06T08:44:56.666Z,97538.22
2023-01-06T08:47:23.504Z,97532.56
2023-01-06T08:49:50.196Z,97535.59
2023-01-06T08:52:16.926Z,97539.31
2023-01-06T08:54:46.495Z,97537.75
2023-01-06T08:57:15.836Z,97538.97
2023-01-06T08:59:42.924Z,97539.16
2023-01-06T09:02:11.300Z,97554.78
2023-01-06T09:04:38.260Z,97565.81
2023-01-06T09:07:05.018Z,97553.78
2023-01-06T09:09:31.713Z,97573.22
2023-01-06T09:11:58.312Z,97568.31
2023-01-06T09:14:25.052Z,97570.69
2023-01-06T09:16:51.741Z,97593.91
2023-01-06T09:19:20.592Z,97577.56
2023-01-06T09:21:47.650Z,97596.22
2023-01-06T09:24:15.254Z,97600.66
2023-01-06T09:26:42.066Z,97576.19
2023-01-06T09:29:09.244Z,97583.09
2023-01-06T09:31:35.988Z,97587.72
2023-01-06T09:34:03.478Z,97586.13
2023-01-06T09:36:30.138Z,97575.25
2023-01-06T09:38:56.739Z,97583.81
2023-01-06T09:41:35.851Z,97603.91
2023-01-06T09:44:14.818Z,97618.97
2023-01-06T09:46:44.972Z,97611.03
2023-01-06T09:49:22.724Z,97609.72
2023-01-06T09:51:49.789Z,97630.53
2023-01-06T09:54:26.765Z,97637.56
2023-01-06T09:57:15.796Z,97653.72
2023-01-06T09:59:50.751Z,97657.66
2023-01-06T10:02:24.512Z,97640.66
2023-01-06T10:04:51.181Z,97638.19
2023-01-06T10:07:28.978Z,97653.09
2023-01-06T10:10:04.244Z,97656.81
2023-01-06T10:13:01.617Z,97661.53
2023-01-06T10:15:53.256Z,97661.09
2023-01-06T10:18:48.392Z,97660.97
2023-01-06T10:21:25.666Z,97692.97
2023-01-06T10:24:07.662Z,97668.44
2023-01-06T10:26:45.409Z,97675.09
2023-01-06T10:29:18.053Z,97677.19
2023-01-06T10:31:46.876Z,97666.88
2023-01-06T10:34:27.821Z,97649.88
2023-01-06T10:37:39.472Z,97631.19
2023-01-06T10:40:25.667Z,97626.25
2023-01-06T10:43:04.018Z,97631.91
2023-01-06T10:45:33.914Z,97650.22
2023-01-06T10:48:02.184Z,97645.50
2023-01-06T10:50:29.087Z,97650.56
2023-01-06T10:52:55.838Z,97658.84
2023-01-06T10:55:25.356Z,97638.94
2023-01-06T10:57:54.969Z,97644.88
2023-01-06T11:00:23.990Z,97637.09
2023-01-06T11:02:53.412Z,97641.38
2023-01-06T11:05:23.871Z,97649.16
2023-01-06T11:07:57.438Z,97652.06
2023-01-06T11:10:31.387Z,97666.50
2023-01-06T11:12:59.597Z,97663.72
2023-01-06T11:15:36.504Z,97644.25
2023-01-06T11:18:05.270Z,97633.25
2023-01-06T11:20:35.170Z,97626.97
2023-01-06T11:23:20.675Z,97628.50
2023-01-06T11:26:03.370Z,97622.81
2023-01-06T11:28:30.904Z,97629.41
2023-01-06T11:31:05.496Z,97626.97
2023-01-06T11:33:35.142Z,97627.22
2023-01-06T11:36:09.367Z,97629.69
2023-01-06T11:38:48.777Z,97610.63
2023-01-06T11:41:25.802Z,97627.13
2023-01-06T11:43:56.344Z,97613.34
2023-01-06T11:46:24.507Z,97619.31
2023-01-06T11:49:40.735Z,97628.94
2023-01-06T11:52:21.567Z,97595.75
2023-01-06T11:54:57.211Z,97595.75
2023-01-06T11:57:44.543Z,97587.78
2023-01-06T12:00:43.306Z,97591.44
2023-01-06T12:03:34.951Z,97600.34
2023-01-06T12:06:04.470Z,97593.72
2023-01-06T12:08:45.387Z,97588.38
2023-01-06T12:11:25.889Z,97588.69
2023-01-06T12:14:10.633Z,97586.88
2023-01-06T12:16:49.961Z,97583.63
2023-01-06T12:19:22.431Z,97575.69
2023-01-06T12:21:49.807Z,97583.19
2023-01-06T12:24:19.694Z,97565.28
2023-01-06T12:26:46.640Z,97575.53
2023-01-06T12:29:18.942Z,97581.38
2023-01-06T12:31:56.072Z,97577.56
2023-01-06T12:34:36.700Z,97587.00
2023-01-06T12:37:30.641Z,97598.69
2023-01-06T12:40:16.982Z,97594.84
2023-01-06T12:42:51.917Z,97591.81
2023-01-06T12:45:37.770Z,97597.78
2023-01-06T12:48:16.349Z,97601.13
2023-01-06T12:50:49.364Z,97589.84
2023-01-06T12:53:28.146Z,97585.22
2023-01-06T12:56:07.072Z,97613.28
2023-01-06T12:59:11.205Z,97615.09
2023-01-06T13:01:46.098Z,97607.63
2023-01-06T13:04:41.777Z,97631.94
2023-01-06T13:07:27.019Z,97637.03
2023-01-06T13:10:03.935Z,97639.78
2023-01-06T13:12:45.597Z,97641.31
2023-01-06T13:15:25.318Z,97641.75
2023-01-06T13:18:05.804Z,97640.50
2023-01-06T13:20:46.577Z,97643.91
2023-01-06T13:23:19.389Z,97633.78
2023-01-06T13:26:13.355Z,97633.66
2023-01-06T13:29:14.279Z,97621.84
2023-01-06T13:32:04.780Z,97597.34
2023-01-06T13:35:02.276Z,97609.75
2023-01-06T13:37:37.699Z,97619.38
2023-01-06T13:40:11.495Z,97610.81
2023-01-06T13:43:03.297Z,97610.06
2023-01-06T13:45:43.617Z,97615.25
2023-01-06T13:48:17.655Z,97611.75
2023-01-06T13:50:45.691Z,97602.41
2023-01-06T13:53:17.555Z,97607.91
2023-01-06T13:55:44.895Z,97601.16
2023-01-06T13:58:29.120Z,97593.50
2023-01-06T14:01:05.387Z,97599.63
2023-01-06T14:03:33.036Z,97583.69
2023-01-06T14:06:02.236Z,97574.22
2023-01-06T14:08:33.124Z,97589.19
2023-01-06T14:11:03.521Z,97575.72
2023-01-06T14:13:38.723Z,97577.25
2023-01-06T14:16:09.407Z,97572.19
2023-01-06T14:18:40.558Z,97562.22
2023-01-06T14:21:17.569Z,97562.38
2023-01-06T14:24:00.475Z,97565.16
2023-01-06T14:26:48.229Z,97561.75
2023-01-06T14:30:13.329Z,97555.50
2023-01-06T14:32:39.988Z,97555.97
2023-01-06T14:35:13.165Z,97550.16
2023-01-06T14:37:52.149Z,97537.88
2023-01-06T14:40:25.736Z,97552.28
2023-01-06T14:42:53.224Z,97543.22
2023-01-06T14:45:27.724Z,97542.47
2023-01-06T14:48:02.827Z,97534.53
2023-01-06T14:50:46.183Z,97533.56
2023-01-06T14:53:33.668Z,97530.19
2023-01-06T14:56:00.818Z,97536.47
2023-01-06T14:58:37.035Z,97525.00
2023-01-06T15:01:06.110Z,97542.44
2023-01-06T15:03:34.703Z,97532.03
2023-01-06T15:06:20.143Z,97539.38
2023-01-06T15:08:47.847Z,97541.53
2023-01-06T15:11:23.689Z,97538.75
2023-01-06T15:13:50.661Z,97530.19
2023-01-06T15:16:20.852Z,97528.34
2023-01-06T15:18:48.743Z,97525.75
2023-01-06T15:21:15.768Z,97524.50
2023-01-06T15:23:45.071Z,97521.47
2023-01-06T15:26:20.246Z,97525.13
2023-01-06T15:29:04.928Z,97519.94
2023-01-06T15:31:37.237Z,97511.97
2023-01-06T15:34:09.165Z,97511.19
2023-01-06T15:36:39.702Z,97505.84
2023-01-06T15:39:07.314Z,97512.09
2023-01-06T15:41:34.428Z,97515.47
2023-01-06T15:44:02.683Z,97499.69
2023-01-06T15:46:40.895Z,97491.00
2023-01-06T15:49:30.803Z,97501.09
2023-01-06T15:52:03.015Z,97495.88
2023-01-06T15:54:31.830Z,97480.41
2023-01-06T15:57:15.247Z,97504.88
2023-01-06T15:59:54.998Z,97490.03
2023-01-06T16:02:25.289Z,97491.88
2023-01-06T16:04:52.177Z,97481.78
2023-01-06T16:07:31.816Z,97492.50
2023-01-06T16:09:58.523Z,97479.50
2023-01-06T16:12:25.982Z,97472.88
2023-01-06T16:14:52.831Z,97469.06
2023-01-06T16:17:45.592Z,97464.47
2023-01-06T16:20:24.454Z,97460.78
2023-01-06T16:22:55.265Z,97455.44
2023-01-06T16:25:25.337Z,97459.88
2023-01-06T16:27:55.202Z,97449.47
2023-01-06T16:30:27.696Z,97447.16
2023-01-06T16:32:55.464Z,97446.56
2023-01-06T16:35:25.095Z,97447.16
2023-01-06T16:37:52.586Z,97430.06
2023-01-06T16:40:21.274Z,97430.66
2023-01-06T16:42:49.207Z,97421.94
2023-01-06T16:45:36.357Z,97418.25
2023-01-06T16:48:03.237Z,97417.16
2023-01-06T16:50:38.537Z,97412.72
2023-01-06T16:53:15.563Z,97410.72
2023-01-06T16:55:43.598Z,97404.47
2023-01-06T16:58:18.087Z,97400.81
2023-01-06T17:00:51.483Z,97389.50
2023-01-06T17:03:25.821Z,97389.16
2023-01-06T17:05:53.410Z,97377.84
2023-01-06T17:08:37.020Z,97382.44
2023-01-06T17:11:15.783Z,97374.28
2023-01-06T17:13:50.050Z,97367.13
2023-01-06T17:16:21.358Z,97363.75
2023-01-06T17:18:56.794Z,97362.66
2023-01-06T17:21:29.959Z,97347.50
2023-01-06T17:24:11.657Z,97345.53
2023-01-06T17:26:39.777Z,97341.88
2023-01-06T17:29:15.874Z,97347.47
2023-01-06T17:31:47.039Z,97334.53
2023-01-06T17:34:21.467Z,97342.69
2023-01-06T17:36:50.709Z,97343.91
2023-01-06T17:39:26.292Z,97361.94
2023-01-06T17:42:13.202Z,97366.97
2023-01-06T17:44:51.414Z,97372.34
2023-01-06T17:47:18.050Z,97376.50
2023-01-06T17:49:49.781Z,97373.13
2023-01-06T17:52:28.439Z,97376.13
2023-01-06T17:55:29.783Z,97361.66
2023-01-06T17:57:58.418Z,97366.97
2023-01-06T18:00:29.749Z,97366.50
2023-01-06T18:03:01.638Z,97354.47
2023-01-06T18:05:28.806Z,97368.38
2023-01-06T18:08:11.973Z,97365.00
2023-01-06T18:10:43.242Z,97362.25
2023-01-06T18:13:15.977Z,97364.28
2023-01-06T18:15:44.242Z,97369.56
2023-01-06T18:18:23.584Z,97366.06
2023-01-06T18:21:01.055Z,97363.28
2023-01-06T18:23:28.055Z,97358.56
2023-01-06T18:26:01.808Z,97356.72
2023-01-06T18:28:29.903Z,97362.81
2023-01-06T18:30:58.925Z,97354.09
2023-01-06T18:33:26.177Z,97354.06
2023-01-06T18:35:57.626Z,97349.78
2023-01-06T18:38:30.079Z,97346.44
2023-01-06T18:40:56.790Z,97347.38
2023-01-06T18:43:27.959Z,97341.72
2023-01-06T18:45:58.111Z,97345.66
2023-01-06T18:48:25.159Z,97340.47
2023-01-06T18:50:52.319Z,97333.47
2023-01-06T18:53:23.222Z,97340.19
2023-01-06T18:55:55.097Z,97333.94
2023-01-06T18:58:37.171Z,97328.72
2023-01-06T19:01:22.287Z,97332.69
2023-01-06T19:03:54.694Z,97326.34
2023-01-06T19:06:42.754Z,97317.00
2023-01-06T19:09:36.060Z,97317.00
2023-01-06T19:12:08.757Z,97316.38
2023-01-06T19:14:43.494Z,97319.44
2023-01-06T19:17:16.168Z,97310.56
2023-01-06T19:19:43.402Z,97310.56
2023-01-06T19:22:18.922Z,97304.50
2023-01-06T19:24:51.686Z,97304.63
2023-01-06T19:27:32.744Z,97298.19
2023-01-06T19:30:25.461Z,97295.44
2023-01-06T19:32:52.298Z,97284.31
2023-01-06T19:35:26.029Z,97288.72
2023-01-06T19:38:05.628Z,97291.94
2023-01-06T19:40:41.512Z,97285.06
2023-01-06T19:46:17.778Z,97290.72
2023-01-06T19:48:44.609Z,97291.50
2023-01-06T19:51:27.659Z,97291.81
2023-01-06T19:54:01.004Z,97292.13
2023-01-06T19:56:33.409Z,97292.25
2023-01-06T19:59:10.155Z,97291.03
2023-01-06T20:01:36.921Z,97294.56
2023-01-06T20:04:03.831Z,97286.44
2023-01-06T20:06:30.476Z,97293.66
2023-01-06T20:08:57.200Z,97291.81
2023-01-06T20:11:24.770Z,97292.41
2023-01-06T20:13:52.196Z,97308.94
2023-01-06T20:16:19.017Z,97319.91
2023-01-06T20:18:45.732Z,97323.41
2023-01-06T20:21:12.435Z,97332.94
2023-01-06T20:23:40.464Z,97330.47
2023-01-06T20:26:07.204Z,97331.06
2023-01-06T20:28:33.871Z,97335.50
2023-01-06T20:31:00.575Z,97326.75
2023-01-06T20:33:27.310Z,97326.13
2023-01-06T20:35:54.041Z,97338.06
2023-01-06T20:38:20.691Z,97326.22
2023-01-06T20:40:47.449Z,97330.06
2023-01-06T20:43:15.123Z,97327.75
2023-01-06T20:45:44.047Z,97323.03
2023-01-06T20:48:10.675Z,97323.78
2023-01-06T20:50:39.173Z,97318.28
2023-01-06T20:53:05.869Z,97322.41
2023-01-06T20:55:32.515Z,97312.94
2023-01-06T20:57:59.243Z,97315.66
2023-01-06T21:00:25.907Z,97323.00
2023-01-06T21:02:52.703Z,97320.63
2023-01-06T21:05:21.045Z,97323.03
2023-01-06T21:07:48.101Z,97315.44
2023-01-06T21:10:14.825Z,97324.91
2023-01-06T21:12:43.213Z,97329.50
2023-01-06T21:15:11.368Z,97338.66
2023-01-06T21:17:38.165Z,97333.47
2023-01-06T21:20:06.422Z,97333.00
2023-01-06T21:22:33.355Z,97326.41
2023-01-06T21:25:00.158Z,97319.13
2023-01-06T21:27:26.875Z,97326.78
2023-01-06T21:29:53.509Z,97327.88
2023-01-06T21:32:20.197Z,97327.88
2023-01-06T21:34:47.021Z,97332.94
2023-01-06T21:37:13.668Z,97339.75
2023-01-06T21:39:40.311Z,97334.16
2023-01-06T21:42:25.625Z,97341.47
2023-01-06T21:44:52.372Z,97341.94
2023-01-06T21:47:19.925Z,97340.22
2023-01-06T21:49:46.872Z,97334.53
2023-01-06T21:52:15.528Z,97335.28
2023-01-06T21:54:45.278Z,97328.63
2023-01-06T21:57:12.849Z,97332.28
2023-01-06T21:59:40.069Z,97327.69
2023-01-06T22:02:08.590Z,97334.13
2023-01-06T22:04:35.392Z,97333.75
2023-01-06T22:07:06.556Z,97329.81
2023-01-06T22:09:33.303Z,97334.72
2023-01-06T22:12:01.755Z,97329.81
2023-01-06T22:14:28.583Z,97329.50
2023-01-06T22:17:00.345Z,97330.28
2023-01-06T22:19:27.994Z,97335.72
2023-01-06T22:21:54.812Z,97331.16
2023-01-06T22:24:22.626Z,97321.84
2023-01-06T22:26:49.300Z,97333.34
2023-01-06T22:29:15.904Z,97329.03
2023-01-06T22:31:42.543Z,97335.28
2023-01-06T22:34:09.324Z,97329.63
2023-01-06T22:36:36.047Z,97336.38
2023-01-06T22:39:02.709Z,97340.38
2023-01-06T22:41:29.356Z,97343.56
2023-01-06T22:43:56.097Z,97357.16
2023-01-06T22:46:22.854Z,97344.50
2023-01-06T22:48:49.660Z,97335.16
2023-01-06T22:51:16.532Z,97341.56
2023-01-06T22:53:43.163Z,97339.75
2023-01-06T22:56:11.560Z,97358.44
2023-01-06T22:58:39.867Z,97360.41
2023-01-06T23:01:08.399Z,97354.09
2023-01-06T23:03:35.775Z,97352.31
2023-01-06T23:06:05.118Z,97351.19
2023-01-06T23:08:33.856Z,97362.25
2023-01-06T23:11:06.010Z,97374.75
2023-01-06T23:13:33.938Z,97374.88
2023-01-06T23:16:12.103Z,97370.03
2023-01-06T23:18:40.878Z,97380.13
2023-01-06T23:21:13.627Z,97373.53
2023-01-06T23:23:41.796Z,97377.34
2023-01-06T23:26:20.413Z,97369.38
2023-01-06T23:28:47.082Z,97354.56
2023-01-06T23:31:16.769Z,97350.75
2023-01-06T23:33:48.664Z,97348.59
2023-01-06T23:36:17.612Z,97337.13
2023-01-06T23:38:44.567Z,97338.22
2023-01-06T23:41:14.167Z,97329.06
2023-01-06T23:43:41.204Z,97325.13
2023-01-06T23:46:11.348Z,97324.34
2023-01-06T23:48:38.740Z,97316.75
2023-01-06T23:51:06.810Z,97328.97
2023-01-06T23:53:35.008Z,97331.38
2023-01-06T23:56:05.037Z,97331.34
2023-01-06T23:58:34.849Z,97323.41
